createdAt,value
2022-09-11T00:00:12.622Z,15.00
2022-09-11T00:05:14.533Z,15.00
2022-09-11T00:10:17.733Z,15.00
2022-09-11T00:15:19.522Z,15.00
2022-09-11T00:20:21.507Z,15.10
2022-09-11T00:25:23.298Z,15.00
2022-09-11T00:30:25.162Z,15.10
2022-09-11T00:35:29.188Z,15.10
2022-09-11T00:40:31.146Z,15.10
2022-09-11T00:45:33.035Z,15.20
2022-09-11T00:50:35.189Z,15.10
2022-09-11T00:55:38.097Z,15.20
2022-09-11T01:00:43.384Z,15.20
2022-09-11T01:05:45.410Z,15.20
2022-09-11T01:11:08.338Z,15.20
2022-09-11T01:16:28.825Z,15.20
2022-09-11T01:21:47.006Z,15.20
2022-09-11T01:27:26.713Z,15.20
2022-09-11T01:32:50.167Z,15.10
2022-09-11T01:37:59.485Z,15.10
2022-09-11T01:43:07.109Z,15.10
2022-09-11T01:48:09.373Z,15.00
2022-09-11T01:53:12.770Z,15.00
2022-09-11T01:58:20.366Z,15.00
2022-09-11T02:03:27.235Z,15.00
2022-09-11T02:08:47.092Z,15.00
2022-09-11T02:13:48.828Z,15.00
2022-09-11T02:19:00.785Z,15.00
2022-09-11T02:24:03.286Z,15.00
2022-09-11T02:29:05.486Z,15.00
2022-09-11T02:34:07.360Z,15.00
2022-09-11T02:39:24.193Z,15.10
2022-09-11T02:44:53.025Z,15.00
2022-09-11T02:50:17.349Z,15.10
2022-09-11T02:55:25.524Z,15.10
2022-09-11T03:00:27.753Z,15.10
2022-09-11T03:05:29.557Z,15.20
2022-09-11T03:10:31.330Z,15.20
2022-09-11T03:15:34.344Z,15.20
2022-09-11T03:20:36.225Z,15.10
2022-09-11T03:25:38.002Z,15.10
2022-09-11T03:30:41.506Z,15.10
2022-09-11T03:35:44.671Z,15.10
2022-09-11T03:40:46.687Z,15.10
2022-09-11T03:45:54.668Z,15.10
2022-09-11T03:50:56.658Z,15.10
2022-09-11T03:56:00.280Z,15.10
2022-09-11T04:01:02.163Z,15.10
2022-09-11T04:06:04.101Z,15.10
2022-09-11T04:11:06.791Z,15.10
2022-09-11T04:16:12.735Z,15.10
2022-09-11T04:21:17.022Z,15.10
2022-09-11T04:26:20.910Z,15.10
2022-09-11T04:31:22.907Z,15.10
2022-09-11T04:36:26.944Z,15.00
2022-09-11T04:41:28.934Z,15.00
2022-09-11T04:46:30.834Z,15.10
2022-09-11T04:51:34.964Z,15.10
2022-09-11T04:56:40.070Z,15.10
2022-09-11T05:01:42.911Z,15.10
2022-09-11T05:06:48.153Z,15.10
2022-09-11T05:11:50.503Z,15.20
2022-09-11T05:16:52.935Z,15.20
2022-09-11T05:21:55.553Z,15.30
2022-09-11T05:26:58.959Z,15.40
2022-09-11T05:32:01.245Z,15.40
2022-09-11T05:37:03.195Z,15.40
2022-09-11T05:42:05.204Z,15.50
2022-09-11T05:47:07.001Z,15.60
2022-09-11T05:52:09.726Z,15.80
2022-09-11T05:57:12.837Z,15.90
2022-09-11T06:02:14.714Z,16.00
2022-09-11T06:07:16.620Z,15.90
2022-09-11T06:12:20.498Z,16.00
2022-09-11T06:17:23.126Z,16.20
2022-09-11T06:22:27.321Z,16.30
2022-09-11T06:27:29.097Z,16.60
2022-09-11T06:32:32.941Z,16.60
2022-09-11T06:37:36.829Z,16.70
2022-09-11T06:42:39.425Z,16.80
2022-09-11T06:47:52.345Z,16.90
2022-09-11T06:52:54.165Z,17.00
2022-09-11T06:57:56.022Z,17.00
2022-09-11T07:02:57.909Z,17.10
2022-09-11T07:08:00.069Z,17.30
2022-09-11T07:13:01.877Z,17.30
2022-09-11T07:18:03.841Z,17.40
2022-09-11T07:23:05.714Z,17.40
2022-09-11T07:28:07.557Z,17.40
2022-09-11T07:33:09.498Z,17.50
2022-09-11T07:38:11.286Z,17.50
2022-09-11T07:43:13.539Z,17.50
2022-09-11T07:48:15.514Z,17.70
2022-09-11T07:53:18.307Z,17.90
2022-09-11T07:58:20.175Z,18.30
2022-09-11T08:03:21.970Z,18.90
2022-09-11T08:08:23.770Z,19.20
2022-09-11T08:13:25.863Z,19.20
2022-09-11T08:18:29.002Z,19.30
2022-09-11T08:23:34.192Z,20.10
2022-09-11T08:28:37.084Z,20.40
2022-09-11T08:33:39.545Z,20.30
2022-09-11T08:38:43.233Z,19.80
2022-09-11T08:43:50.801Z,19.60
2022-09-11T08:49:17.128Z,19.50
2022-09-11T08:54:23.149Z,19.50
2022-09-11T08:59:40.449Z,19.40
2022-09-11T09:04:56.869Z,19.60
2022-09-11T09:10:07.621Z,20.60
2022-09-11T09:15:45.816Z,21.00
2022-09-11T09:20:57.579Z,21.00
2022-09-11T09:26:01.117Z,20.60
2022-09-11T09:31:06.089Z,20.50
2022-09-11T09:36:17.909Z,20.50
2022-09-11T09:41:41.532Z,20.60
2022-09-11T09:46:54.181Z,21.40
2022-09-11T09:52:04.511Z,22.10
2022-09-11T09:57:13.738Z,22.70
2022-09-11T10:02:38.569Z,23.50
2022-09-11T10:07:48.396Z,23.60
2022-09-11T10:12:50.636Z,23.80
2022-09-11T10:17:53.186Z,24.20
2022-09-11T10:22:55.330Z,23.70
2022-09-11T10:28:03.433Z,23.70
2022-09-11T10:33:16.797Z,23.70
2022-09-11T10:38:20.087Z,23.60
2022-09-11T10:43:25.514Z,23.60
2022-09-11T10:48:27.413Z,23.80
2022-09-11T10:53:30.190Z,24.60
2022-09-11T10:58:35.586Z,24.90
2022-09-11T11:03:38.378Z,24.40
2022-09-11T11:08:56.350Z,24.40
2022-09-11T11:14:11.441Z,23.70
2022-09-11T11:19:28.535Z,23.40
2022-09-11T11:25:05.884Z,23.60
2022-09-11T11:30:49.715Z,23.40
2022-09-11T11:36:07.974Z,23.70
2022-09-11T11:41:22.775Z,23.90
2022-09-11T11:46:30.101Z,24.40
2022-09-11T11:51:47.477Z,24.50
2022-09-11T11:56:55.242Z,24.50
2022-09-11T12:02:19.709Z,24.50
2022-09-11T12:07:33.768Z,24.90
2022-09-11T12:12:50.406Z,24.80
2022-09-11T12:18:16.468Z,24.90
2022-09-11T12:23:30.565Z,24.80
2022-09-11T12:28:35.813Z,24.20
2022-09-11T12:33:41.799Z,23.90
2022-09-11T12:38:49.159Z,23.90
2022-09-11T12:43:51.562Z,24.10
2022-09-11T12:49:22.480Z,24.40
2022-09-11T12:54:29.933Z,24.50
2022-09-11T12:59:44.485Z,24.50
2022-09-11T13:04:46.916Z,24.40
2022-09-11T13:09:49.431Z,24.30
2022-09-11T13:14:58.153Z,24.50
2022-09-11T13:20:07.493Z,24.70
2022-09-11T13:25:12.338Z,24.70
2022-09-11T13:30:16.184Z,24.60
2022-09-11T13:35:25.940Z,24.20
2022-09-11T13:40:49.837Z,23.70
2022-09-11T13:46:16.740Z,23.10
2022-09-11T13:51:21.950Z,22.60
2022-09-11T13:57:05.416Z,22.20
2022-09-11T14:02:19.596Z,21.80
2022-09-11T14:07:25.382Z,21.20
2022-09-11T14:12:28.343Z,20.60
2022-09-11T14:17:30.352Z,20.10
2022-09-11T14:22:32.466Z,19.90
2022-09-11T14:27:37.565Z,19.80
2022-09-11T14:32:40.057Z,19.70
2022-09-11T14:37:45.938Z,19.70
2022-09-11T14:42:47.991Z,19.70
2022-09-11T14:47:50.256Z,19.60
2022-09-11T14:52:52.097Z,19.50
2022-09-11T14:57:54.068Z,19.50
2022-09-11T15:02:57.093Z,19.60
2022-09-11T15:08:00.516Z,19.60
2022-09-11T15:13:13.345Z,19.70
2022-09-11T15:18:17.706Z,19.70
2022-09-11T15:23:19.492Z,19.50
2022-09-11T15:28:21.281Z,19.30
2022-09-11T15:33:30.651Z,18.80
2022-09-11T15:38:36.582Z,18.00
2022-09-11T15:43:39.447Z,17.50
2022-09-11T15:48:42.438Z,17.30
2022-09-11T15:53:47.109Z,17.30
2022-09-11T15:58:49.182Z,17.20
2022-09-11T16:04:02.382Z,17.30
2022-09-11T16:09:17.729Z,17.40
2022-09-11T16:14:35.187Z,17.40
2022-09-11T16:19:38.668Z,17.40
2022-09-11T16:24:42.518Z,17.40
2022-09-11T16:35:19.054Z,17.40
2022-09-11T16:40:22.984Z,17.40
2022-09-11T16:45:24.997Z,17.30
2022-09-11T16:50:28.413Z,17.30
2022-09-11T16:55:38.571Z,17.20
2022-09-11T17:00:43.175Z,17.10
2022-09-11T17:05:55.685Z,17.10
2022-09-11T17:11:00.591Z,17.10
2022-09-11T17:16:06.677Z,17.10
2022-09-11T17:21:09.790Z,17.10
2022-09-11T17:26:14.095Z,17.00
2022-09-11T17:31:17.596Z,17.00
2022-09-11T17:36:21.196Z,16.90
2022-09-11T17:41:24.878Z,16.90
2022-09-11T17:46:26.727Z,16.80
2022-09-11T17:51:29.777Z,16.70
2022-09-11T17:56:31.760Z,16.60
2022-09-11T18:01:33.782Z,16.60
2022-09-11T18:06:37.246Z,16.50
2022-09-11T18:11:39.806Z,16.50
2022-09-11T18:16:45.295Z,16.40
2022-09-11T18:21:50.326Z,16.30
2022-09-11T18:26:57.262Z,16.20
2022-09-11T18:32:00.688Z,16.20
2022-09-11T18:37:03.025Z,16.10
2022-09-11T18:42:07.531Z,16.10
2022-09-11T18:47:09.541Z,16.10
2022-09-11T18:52:14.555Z,16.10
2022-09-11T18:57:16.353Z,16.20
2022-09-11T19:02:22.007Z,16.30
2022-09-11T19:07:24.387Z,16.30
2022-09-11T19:12:26.226Z,16.30
2022-09-11T19:17:30.171Z,16.20
2022-09-11T19:22:33.542Z,16.30
2022-09-11T19:27:42.758Z,16.20
2022-09-11T19:32:45.735Z,16.20
2022-09-11T19:37:47.657Z,16.20
2022-09-11T19:42:49.630Z,16.20
2022-09-11T19:47:51.830Z,16.10
2022-09-11T19:52:53.767Z,16.00
2022-09-11T19:57:55.581Z,15.90
2022-09-11T20:03:24.101Z,15.90
2022-09-11T20:08:26.283Z,15.80
2022-09-11T20:13:28.279Z,15.70
2022-09-11T20:18:30.101Z,15.70
2022-09-11T20:23:32.198Z,15.70
2022-09-11T20:28:33.979Z,15.70
2022-09-11T20:33:35.788Z,15.60
2022-09-11T20:38:37.686Z,15.60
2022-09-11T20:43:40.051Z,15.60
2022-09-11T20:48:41.866Z,15.60
2022-09-11T20:53:45.923Z,15.50
2022-09-11T20:58:48.210Z,15.50
2022-09-11T21:03:56.658Z,15.50
2022-09-11T21:09:03.871Z,15.40
2022-09-11T21:14:06.387Z,15.40
2022-09-11T21:19:09.887Z,15.30
2022-09-11T21:24:13.062Z,15.30
2022-09-11T21:29:15.165Z,15.20
2022-09-11T21:34:18.246Z,15.20
2022-09-11T21:39:20.059Z,15.20
2022-09-11T21:44:22.126Z,15.10
2022-09-11T21:49:27.616Z,15.10
2022-09-11T21:54:31.893Z,15.00
2022-09-11T21:59:33.911Z,15.00
2022-09-11T22:04:35.939Z,15.00
2022-09-11T22:09:38.404Z,15.00
2022-09-11T22:14:40.398Z,15.00
2022-09-11T22:19:45.814Z,15.00
2022-09-11T22:24:47.647Z,14.90
2022-09-11T22:29:53.202Z,14.90
2022-09-11T22:34:54.973Z,14.80
2022-09-11T22:39:56.795Z,14.70
2022-09-11T22:44:58.642Z,14.60
2022-09-11T22:50:00.521Z,14.50
2022-09-11T22:55:02.474Z,14.40
2022-09-11T23:00:06.907Z,14.30
2022-09-11T23:05:27.600Z,14.20
2022-09-11T23:10:29.397Z,14.20
2022-09-11T23:15:31.179Z,14.10
2022-09-11T23:20:33.302Z,14.00
2022-09-11T23:25:36.159Z,14.00
2022-09-11T23:30:39.502Z,14.00
2022-09-11T23:35:41.297Z,13.80
2022-09-11T23:40:43.097Z,13.80
2022-09-11T23:45:44.938Z,13.80
2022-09-11T23:50:46.740Z,13.70
2022-09-11T23:55:51.774Z,13.80
